sensor_id;sensor_type;location;lat;lon;timestamp;P1;durP1;ratioP1;P2;durP2;ratioP2
33152;SDS011;19509;43.862;26.176;2022-11-04T00:01:33;1.20;;;1.20;;
33152;SDS011;19509;43.862;26.176;2022-11-04T00:04:01;1.30;;;1.30;;
33152;SDS011;19509;43.862;26.176;2022-11-04T00:06:26;1.40;;;1.40;;
33152;SDS011;19509;43.862;26.176;2022-11-04T00:08:52;1.20;;;1.20;;
33152;SDS011;19509;43.862;26.176;2022-11-04T00:11:19;1.20;;;1.20;;
33152;SDS011;19509;43.862;26.176;2022-11-04T00:14:05;1.30;;;1.30;;
33152;SDS011;19509;43.862;26.176;2022-11-04T00:16:32;1.23;;;1.23;;
33152;SDS011;19509;43.862;26.176;2022-11-04T00:19:16;1.17;;;1.17;;
33152;SDS011;19509;43.862;26.176;2022-11-04T00:21:42;1.20;;;1.20;;
33152;SDS011;19509;43.862;26.176;2022-11-04T00:24:26;1.17;;;1.17;;
33152;SDS011;19509;43.862;26.176;2022-11-04T00:27:13;1.30;;;1.30;;
33152;SDS011;19509;43.862;26.176;2022-11-04T00:30:02;1.10;;;1.10;;
33152;SDS011;19509;43.862;26.176;2022-11-04T00:32:32;1.30;;;1.30;;
33152;SDS011;19509;43.862;26.176;2022-11-04T00:35:16;1.20;;;1.20;;
33152;SDS011;19509;43.862;26.176;2022-11-04T00:37:42;1.33;;;1.33;;
33152;SDS011;19509;43.862;26.176;2022-11-04T00:40:09;1.30;;;1.30;;
33152;SDS011;19509;43.862;26.176;2022-11-04T00:42:36;1.40;;;1.40;;
33152;SDS011;19509;43.862;26.176;2022-11-04T00:45:02;1.20;;;1.20;;
33152;SDS011;19509;43.862;26.176;2022-11-04T00:47:28;1.30;;;1.30;;
33152;SDS011;19509;43.862;26.176;2022-11-04T00:49:54;1.40;;;1.40;;
33152;SDS011;19509;43.862;26.176;2022-11-04T00:52:20;1.30;;;1.30;;
33152;SDS011;19509;43.862;26.176;2022-11-04T00:54:46;1.50;;;1.50;;
33152;SDS011;19509;43.862;26.176;2022-11-04T00:57:11;1.33;;;1.33;;
33152;SDS011;19509;43.862;26.176;2022-11-04T00:59:37;1.50;;;1.50;;
33152;SDS011;19509;43.862;26.176;2022-11-04T01:02:04;1.40;;;1.40;;
33152;SDS011;19509;43.862;26.176;2022-11-04T01:04:30;1.30;;;1.30;;
33152;SDS011;19509;43.862;26.176;2022-11-04T01:06:55;1.40;;;1.40;;
33152;SDS011;19509;43.862;26.176;2022-11-04T01:09:21;1.20;;;1.20;;
33152;SDS011;19509;43.862;26.176;2022-11-04T01:11:47;1.30;;;1.30;;
33152;SDS011;19509;43.862;26.176;2022-11-04T01:14:12;2.83;;;1.40;;
33152;SDS011;19509;43.862;26.176;2022-11-04T01:16:38;1.20;;;1.20;;
33152;SDS011;19509;43.862;26.176;2022-11-04T01:19:04;1.33;;;1.33;;
33152;SDS011;19509;43.862;26.176;2022-11-04T01:21:29;1.50;;;1.50;;
33152;SDS011;19509;43.862;26.176;2022-11-04T01:23:55;1.47;;;1.47;;
33152;SDS011;19509;43.862;26.176;2022-11-04T01:26:21;1.20;;;1.20;;
33152;SDS011;19509;43.862;26.176;2022-11-04T01:28:48;1.30;;;1.30;;
33152;SDS011;19509;43.862;26.176;2022-11-04T01:31:17;1.20;;;1.20;;
33152;SDS011;19509;43.862;26.176;2022-11-04T01:33:48;1.40;;;1.40;;
33152;SDS011;19509;43.862;26.176;2022-11-04T01:36:14;1.43;;;1.33;;
33152;SDS011;19509;43.862;26.176;2022-11-04T01:38:40;1.10;;;1.10;;
33152;SDS011;19509;43.862;26.176;2022-11-04T01:41:07;1.47;;;1.47;;
33152;SDS011;19509;43.862;26.176;2022-11-04T01:49:07;1.40;;;1.40;;
33152;SDS011;19509;43.862;26.176;2022-11-04T01:51:36;1.73;;;1.73;;
33152;SDS011;19509;43.862;26.176;2022-11-04T01:54:04;1.50;;;1.50;;
33152;SDS011;19509;43.862;26.176;2022-11-04T01:56:32;1.27;;;1.27;;
33152;SDS011;19509;43.862;26.176;2022-11-04T01:58:58;1.30;;;1.30;;
33152;SDS011;19509;43.862;26.176;2022-11-04T02:01:29;1.40;;;1.40;;
33152;SDS011;19509;43.862;26.176;2022-11-04T02:03:57;1.50;;;1.50;;
33152;SDS011;19509;43.862;26.176;2022-11-04T02:06:59;1.50;;;1.50;;
33152;SDS011;19509;43.862;26.176;2022-11-04T02:09:28;1.37;;;1.37;;
33152;SDS011;19509;43.862;26.176;2022-11-04T02:11:55;1.40;;;1.40;;
33152;SDS011;19509;43.862;26.176;2022-11-04T02:14:39;1.53;;;1.53;;
33152;SDS011;19509;43.862;26.176;2022-11-04T02:19:47;1.80;;;1.33;;
33152;SDS011;19509;43.862;26.176;2022-11-04T02:34:14;1.40;;;1.40;;
33152;SDS011;19509;43.862;26.176;2022-11-04T02:36:57;1.70;;;1.70;;
33152;SDS011;19509;43.862;26.176;2022-11-04T02:40:05;1.50;;;1.50;;
33152;SDS011;19509;43.862;26.176;2022-11-04T02:47:56;1.50;;;1.50;;
33152;SDS011;19509;43.862;26.176;2022-11-04T02:50:36;1.33;;;1.33;;
33152;SDS011;19509;43.862;26.176;2022-11-04T02:56:05;1.67;;;1.67;;
33152;SDS011;19509;43.862;26.176;2022-11-04T02:58:34;1.50;;;1.50;;
33152;SDS011;19509;43.862;26.176;2022-11-04T03:01:05;1.40;;;1.40;;
33152;SDS011;19509;43.862;26.176;2022-11-04T03:03:34;1.40;;;1.40;;
33152;SDS011;19509;43.862;26.176;2022-11-04T03:06:05;1.30;;;1.30;;
33152;SDS011;19509;43.862;26.176;2022-11-04T03:08:35;1.23;;;1.23;;
33152;SDS011;19509;43.862;26.176;2022-11-04T03:11:06;1.60;;;1.60;;
33152;SDS011;19509;43.862;26.176;2022-11-04T03:13:38;1.40;;;1.40;;
33152;SDS011;19509;43.862;26.176;2022-11-04T03:16:06;1.30;;;1.30;;
33152;SDS011;19509;43.862;26.176;2022-11-04T03:18:49;1.40;;;1.40;;
33152;SDS011;19509;43.862;26.176;2022-11-04T03:21:26;1.40;;;1.40;;
33152;SDS011;19509;43.862;26.176;2022-11-04T03:23:55;1.43;;;1.43;;
33152;SDS011;19509;43.862;26.176;2022-11-04T03:26:23;1.33;;;1.33;;
33152;SDS011;19509;43.862;26.176;2022-11-04T03:31:24;1.33;;;1.33;;
33152;SDS011;19509;43.862;26.176;2022-11-04T03:33:59;1.40;;;1.40;;
33152;SDS011;19509;43.862;26.176;2022-11-04T03:36:24;1.50;;;1.50;;
33152;SDS011;19509;43.862;26.176;2022-11-04T03:38:52;1.40;;;1.40;;
33152;SDS011;19509;43.862;26.176;2022-11-04T03:41:23;1.70;;;1.70;;
33152;SDS011;19509;43.862;26.176;2022-11-04T03:43:56;1.43;;;1.43;;
33152;SDS011;19509;43.862;26.176;2022-11-04T03:46:22;1.47;;;1.47;;
33152;SDS011;19509;43.862;26.176;2022-11-04T03:48:50;1.50;;;1.50;;
33152;SDS011;19509;43.862;26.176;2022-11-04T03:51:17;1.57;;;1.57;;
33152;SDS011;19509;43.862;26.176;2022-11-04T03:53:42;1.50;;;1.50;;
33152;SDS011;19509;43.862;26.176;2022-11-04T04:02:03;1.50;;;1.50;;
33152;SDS011;19509;43.862;26.176;2022-11-04T04:07:33;1.20;;;1.20;;
33152;SDS011;19509;43.862;26.176;2022-11-04T04:10:25;1.60;;;1.60;;
33152;SDS011;19509;43.862;26.176;2022-11-04T04:13:09;1.70;;;1.60;;
33152;SDS011;19509;43.862;26.176;2022-11-04T04:15:43;1.50;;;1.50;;
33152;SDS011;19509;43.862;26.176;2022-11-04T04:18:15;1.40;;;1.40;;
33152;SDS011;19509;43.862;26.176;2022-11-04T04:20:45;1.30;;;1.30;;
33152;SDS011;19509;43.862;26.176;2022-11-04T04:23:22;1.60;;;1.60;;
33152;SDS011;19509;43.862;26.176;2022-11-04T04:26:10;1.57;;;1.57;;
33152;SDS011;19509;43.862;26.176;2022-11-04T04:28:56;1.70;;;1.70;;
33152;SDS011;19509;43.862;26.176;2022-11-04T04:31:25;1.60;;;1.60;;
33152;SDS011;19509;43.862;26.176;2022-11-04T04:34:11;1.30;;;1.30;;
33152;SDS011;19509;43.862;26.176;2022-11-04T04:36:40;1.30;;;1.30;;
33152;SDS011;19509;43.862;26.176;2022-11-04T04:39:10;1.23;;;1.23;;
33152;SDS011;19509;43.862;26.176;2022-11-04T04:41:56;1.43;;;1.43;;
33152;SDS011;19509;43.862;26.176;2022-11-04T04:44:41;1.40;;;1.40;;
33152;SDS011;19509;43.862;26.176;2022-11-04T04:47:26;1.33;;;1.33;;
33152;SDS011;19509;43.862;26.176;2022-11-04T04:49:57;1.40;;;1.40;;
33152;SDS011;19509;43.862;26.176;2022-11-04T04:52:31;1.57;;;1.57;;
33152;SDS011;19509;43.862;26.176;2022-11-04T04:54:58;1.47;;;1.47;;
33152;SDS011;19509;43.862;26.176;2022-11-04T04:57:24;1.53;;;1.43;;
33152;SDS011;19509;43.862;26.176;2022-11-04T04:59:50;1.50;;;1.50;;
33152;SDS011;19509;43.862;26.176;2022-11-04T05:02:15;1.33;;;1.33;;
33152;SDS011;19509;43.862;26.176;2022-11-04T05:04:40;1.50;;;1.50;;
33152;SDS011;19509;43.862;26.176;2022-11-04T05:07:06;1.50;;;1.50;;
33152;SDS011;19509;43.862;26.176;2022-11-04T05:09:33;1.40;;;1.40;;
33152;SDS011;19509;43.862;26.176;2022-11-04T05:11:59;1.30;;;1.30;;
33152;SDS011;19509;43.862;26.176;2022-11-04T05:14:25;1.50;;;1.50;;
33152;SDS011;19509;43.862;26.176;2022-11-04T05:16:50;1.60;;;1.60;;
33152;SDS011;19509;43.862;26.176;2022-11-04T05:19:16;1.70;;;1.60;;
33152;SDS011;19509;43.862;26.176;2022-11-04T05:21:41;1.50;;;1.40;;
33152;SDS011;19509;43.862;26.176;2022-11-04T05:24:06;1.70;;;1.70;;
33152;SDS011;19509;43.862;26.176;2022-11-04T05:26:32;1.60;;;1.60;;
33152;SDS011;19509;43.862;26.176;2022-11-04T05:28:57;1.90;;;1.90;;
33152;SDS011;19509;43.862;26.176;2022-11-04T05:31:23;1.67;;;1.60;;
33152;SDS011;19509;43.862;26.176;2022-11-04T05:33:48;1.60;;;1.60;;
33152;SDS011;19509;43.862;26.176;2022-11-04T05:36:14;1.50;;;1.50;;
33152;SDS011;19509;43.862;26.176;2022-11-04T05:38:41;2.90;;;1.30;;
33152;SDS011;19509;43.862;26.176;2022-11-04T05:41:07;1.40;;;1.40;;
33152;SDS011;19509;43.862;26.176;2022-11-04T05:43:35;1.40;;;1.40;;
33152;SDS011;19509;43.862;26.176;2022-11-04T05:46:01;1.30;;;1.30;;
33152;SDS011;19509;43.862;26.176;2022-11-04T05:48:27;1.20;;;1.20;;
33152;SDS011;19509;43.862;26.176;2022-11-04T05:50:53;1.47;;;1.37;;
33152;SDS011;19509;43.862;26.176;2022-11-04T05:53:19;1.30;;;1.30;;
33152;SDS011;19509;43.862;26.176;2022-11-04T05:55:44;1.13;;;1.13;;
33152;SDS011;19509;43.862;26.176;2022-11-04T05:58:10;1.20;;;1.20;;
33152;SDS011;19509;43.862;26.176;2022-11-04T06:00:35;1.40;;;1.40;;
33152;SDS011;19509;43.862;26.176;2022-11-04T06:03:01;1.17;;;1.17;;
33152;SDS011;19509;43.862;26.176;2022-11-04T06:05:26;1.20;;;1.20;;
33152;SDS011;19509;43.862;26.176;2022-11-04T06:07:52;1.17;;;1.17;;
33152;SDS011;19509;43.862;26.176;2022-11-04T06:10:18;1.50;;;1.40;;
33152;SDS011;19509;43.862;26.176;2022-11-04T06:12:44;1.30;;;1.30;;
33152;SDS011;19509;43.862;26.176;2022-11-04T06:15:09;1.30;;;1.30;;
33152;SDS011;19509;43.862;26.176;2022-11-04T06:17:35;1.17;;;1.17;;
33152;SDS011;19509;43.862;26.176;2022-11-04T06:20:00;1.20;;;1.20;;
33152;SDS011;19509;43.862;26.176;2022-11-04T06:22:26;1.50;;;1.40;;
33152;SDS011;19509;43.862;26.176;2022-11-04T06:24:51;1.03;;;1.03;;
33152;SDS011;19509;43.862;26.176;2022-11-04T06:27:17;1.03;;;1.03;;
33152;SDS011;19509;43.862;26.176;2022-11-04T06:29:42;1.27;;;1.27;;
33152;SDS011;19509;43.862;26.176;2022-11-04T06:32:12;1.50;;;1.50;;
33152;SDS011;19509;43.862;26.176;2022-11-04T06:34:38;1.30;;;1.30;;
33152;SDS011;19509;43.862;26.176;2022-11-04T06:37:04;1.10;;;1.10;;
33152;SDS011;19509;43.862;26.176;2022-11-04T06:39:30;1.30;;;1.30;;
33152;SDS011;19509;43.862;26.176;2022-11-04T06:41:55;1.30;;;1.30;;
33152;SDS011;19509;43.862;26.176;2022-11-04T06:44:21;1.30;;;1.30;;
33152;SDS011;19509;43.862;26.176;2022-11-04T06:46:47;1.17;;;1.17;;
33152;SDS011;19509;43.862;26.176;2022-11-04T06:49:14;1.00;;;1.00;;
33152;SDS011;19509;43.862;26.176;2022-11-04T06:51:42;1.20;;;1.20;;
33152;SDS011;19509;43.862;26.176;2022-11-04T06:54:08;1.10;;;1.10;;
33152;SDS011;19509;43.862;26.176;2022-11-04T06:56:33;1.23;;;1.23;;
33152;SDS011;19509;43.862;26.176;2022-11-04T06:58:59;1.10;;;1.10;;
33152;SDS011;19509;43.862;26.176;2022-11-04T07:01:26;1.10;;;1.10;;
33152;SDS011;19509;43.862;26.176;2022-11-04T07:03:54;1.30;;;1.30;;
33152;SDS011;19509;43.862;26.176;2022-11-04T07:06:21;1.10;;;1.10;;
33152;SDS011;19509;43.862;26.176;2022-11-04T07:08:48;1.10;;;1.10;;
33152;SDS011;19509;43.862;26.176;2022-11-04T07:11:15;1.30;;;1.20;;
33152;SDS011;19509;43.862;26.176;2022-11-04T07:13:42;3.53;;;1.20;;
33152;SDS011;19509;43.862;26.176;2022-11-04T07:16:08;1.20;;;1.20;;
33152;SDS011;19509;43.862;26.176;2022-11-04T07:18:34;2.00;;;1.07;;
33152;SDS011;19509;43.862;26.176;2022-11-04T07:21:00;1.00;;;1.00;;
33152;SDS011;19509;43.862;26.176;2022-11-04T07:23:27;1.10;;;1.10;;
33152;SDS011;19509;43.862;26.176;2022-11-04T07:25:52;1.00;;;1.00;;
33152;SDS011;19509;43.862;26.176;2022-11-04T07:28:18;1.00;;;1.00;;
33152;SDS011;19509;43.862;26.176;2022-11-04T07:30:44;1.00;;;1.00;;
33152;SDS011;19509;43.862;26.176;2022-11-04T07:33:10;1.10;;;1.10;;
33152;SDS011;19509;43.862;26.176;2022-11-04T07:35:36;1.17;;;1.17;;
33152;SDS011;19509;43.862;26.176;2022-11-04T07:38:01;1.20;;;1.20;;
33152;SDS011;19509;43.862;26.176;2022-11-04T07:40:28;1.10;;;1.10;;
33152;SDS011;19509;43.862;26.176;2022-11-04T07:42:54;1.00;;;1.00;;
33152;SDS011;19509;43.862;26.176;2022-11-04T07:45:19;1.00;;;1.00;;
33152;SDS011;19509;43.862;26.176;2022-11-04T07:47:45;0.80;;;0.80;;
33152;SDS011;19509;43.862;26.176;2022-11-04T07:50:10;0.90;;;0.90;;
33152;SDS011;19509;43.862;26.176;2022-11-04T07:52:36;2.20;;;1.00;;
33152;SDS011;19509;43.862;26.176;2022-11-04T07:55:01;0.97;;;0.90;;
33152;SDS011;19509;43.862;26.176;2022-11-04T07:57:27;0.80;;;0.80;;
33152;SDS011;19509;43.862;26.176;2022-11-04T07:59:53;0.83;;;0.83;;
33152;SDS011;19509;43.862;26.176;2022-11-04T08:02:18;0.90;;;0.90;;
33152;SDS011;19509;43.862;26.176;2022-11-04T08:04:44;0.90;;;0.90;;
33152;SDS011;19509;43.862;26.176;2022-11-04T08:07:09;0.97;;;0.97;;
33152;SDS011;19509;43.862;26.176;2022-11-04T08:09:35;0.80;;;0.80;;
33152;SDS011;19509;43.862;26.176;2022-11-04T08:12:01;0.90;;;0.90;;
33152;SDS011;19509;43.862;26.176;2022-11-04T08:14:27;0.80;;;0.80;;
33152;SDS011;19509;43.862;26.176;2022-11-04T08:16:52;0.83;;;0.83;;
33152;SDS011;19509;43.862;26.176;2022-11-04T08:19:18;0.80;;;0.80;;
33152;SDS011;19509;43.862;26.176;2022-11-04T08:21:43;1.20;;;1.20;;
33152;SDS011;19509;43.862;26.176;2022-11-04T08:24:09;0.97;;;0.97;;
33152;SDS011;19509;43.862;26.176;2022-11-04T08:26:34;0.90;;;0.90;;
33152;SDS011;19509;43.862;26.176;2022-11-04T08:29:00;0.90;;;0.90;;
33152;SDS011;19509;43.862;26.176;2022-11-04T08:31:27;0.90;;;0.90;;
33152;SDS011;19509;43.862;26.176;2022-11-04T08:33:54;2.37;;;0.97;;
33152;SDS011;19509;43.862;26.176;2022-11-04T08:36:22;0.93;;;0.93;;
33152;SDS011;19509;43.862;26.176;2022-11-04T08:38:52;0.90;;;0.90;;
33152;SDS011;19509;43.862;26.176;2022-11-04T08:41:19;0.80;;;0.80;;
33152;SDS011;19509;43.862;26.176;2022-11-04T08:43:47;0.90;;;0.90;;
33152;SDS011;19509;43.862;26.176;2022-11-04T08:46:13;0.93;;;0.93;;
33152;SDS011;19509;43.862;26.176;2022-11-04T08:48:39;1.03;;;1.03;;
33152;SDS011;19509;43.862;26.176;2022-11-04T08:51:09;0.93;;;0.93;;
33152;SDS011;19509;43.862;26.176;2022-11-04T08:53:40;0.97;;;0.97;;
33152;SDS011;19509;43.862;26.176;2022-11-04T08:56:14;0.90;;;0.90;;
33152;SDS011;19509;43.862;26.176;2022-11-04T08:58:45;2.77;;;1.10;;
33152;SDS011;19509;43.862;26.176;2022-11-04T09:01:10;0.90;;;0.90;;
33152;SDS011;19509;43.862;26.176;2022-11-04T09:03:37;1.00;;;1.00;;
33152;SDS011;19509;43.862;26.176;2022-11-04T09:06:04;0.80;;;0.80;;
33152;SDS011;19509;43.862;26.176;2022-11-04T09:08:34;0.87;;;0.87;;
33152;SDS011;19509;43.862;26.176;2022-11-04T09:11:05;0.90;;;0.90;;
33152;SDS011;19509;43.862;26.176;2022-11-04T09:13:35;0.90;;;0.90;;
33152;SDS011;19509;43.862;26.176;2022-11-04T09:16:01;0.93;;;0.93;;
33152;SDS011;19509;43.862;26.176;2022-11-04T09:18:26;0.80;;;0.80;;
33152;SDS011;19509;43.862;26.176;2022-11-04T09:20:52;1.00;;;1.00;;
33152;SDS011;19509;43.862;26.176;2022-11-04T09:23:18;1.00;;;1.00;;
33152;SDS011;19509;43.862;26.176;2022-11-04T09:25:43;1.00;;;1.00;;
33152;SDS011;19509;43.862;26.176;2022-11-04T09:28:08;1.00;;;1.00;;
33152;SDS011;19509;43.862;26.176;2022-11-04T09:30:35;1.90;;;1.90;;
33152;SDS011;19509;43.862;26.176;2022-11-04T09:33:01;1.20;;;1.10;;
33152;SDS011;19509;43.862;26.176;2022-11-04T09:35:26;0.90;;;0.90;;
33152;SDS011;19509;43.862;26.176;2022-11-04T09:37:52;1.00;;;1.00;;
33152;SDS011;19509;43.862;26.176;2022-11-04T09:40:19;1.00;;;1.00;;
33152;SDS011;19509;43.862;26.176;2022-11-04T09:45:23;1.00;;;1.00;;
33152;SDS011;19509;43.862;26.176;2022-11-04T09:47:51;1.10;;;1.10;;
33152;SDS011;19509;43.862;26.176;2022-11-04T09:50:23;1.10;;;1.10;;
33152;SDS011;19509;43.862;26.176;2022-11-04T09:52:56;1.10;;;1.10;;
33152;SDS011;19509;43.862;26.176;2022-11-04T09:58:24;1.00;;;1.00;;
33152;SDS011;19509;43.862;26.176;2022-11-04T10:01:05;0.90;;;0.90;;
33152;SDS011;19509;43.862;26.176;2022-11-04T10:06:34;0.93;;;0.93;;
33152;SDS011;19509;43.862;26.176;2022-11-04T10:09:05;1.03;;;1.00;;
33152;SDS011;19509;43.862;26.176;2022-11-04T10:11:53;1.00;;;1.00;;
33152;SDS011;19509;43.862;26.176;2022-11-04T10:14:39;1.13;;;1.13;;
33152;SDS011;19509;43.862;26.176;2022-11-04T10:17:14;0.87;;;0.87;;
33152;SDS011;19509;43.862;26.176;2022-11-04T10:20:15;0.93;;;0.93;;
33152;SDS011;19509;43.862;26.176;2022-11-04T10:26:14;1.00;;;1.00;;
33152;SDS011;19509;43.862;26.176;2022-11-04T10:28:43;0.87;;;0.87;;
33152;SDS011;19509;43.862;26.176;2022-11-04T10:31:14;0.90;;;0.90;;
33152;SDS011;19509;43.862;26.176;2022-11-04T10:33:46;0.80;;;0.80;;
33152;SDS011;19509;43.862;26.176;2022-11-04T10:36:14;1.10;;;1.00;;
33152;SDS011;19509;43.862;26.176;2022-11-04T10:39:03;1.10;;;1.10;;
33152;SDS011;19509;43.862;26.176;2022-11-04T10:41:33;0.80;;;0.80;;
33152;SDS011;19509;43.862;26.176;2022-11-04T10:44:15;0.90;;;0.90;;
33152;SDS011;19509;43.862;26.176;2022-11-04T10:52:09;1.00;;;1.00;;
33152;SDS011;19509;43.862;26.176;2022-11-04T10:54:45;1.10;;;1.10;;
33152;SDS011;19509;43.862;26.176;2022-11-04T10:57:13;1.10;;;1.10;;
33152;SDS011;19509;43.862;26.176;2022-11-04T11:02:15;1.20;;;1.20;;
33152;SDS011;19509;43.862;26.176;2022-11-04T11:04:41;1.13;;;0.90;;
33152;SDS011;19509;43.862;26.176;2022-11-04T11:07:12;0.90;;;0.90;;
33152;SDS011;19509;43.862;26.176;2022-11-04T11:14:37;1.07;;;1.07;;
33152;SDS011;19509;43.862;26.176;2022-11-04T11:19:58;1.10;;;1.10;;
33152;SDS011;19509;43.862;26.176;2022-11-04T11:22:41;1.00;;;1.00;;
33152;SDS011;19509;43.862;26.176;2022-11-04T11:28:05;1.30;;;1.20;;
33152;SDS011;19509;43.862;26.176;2022-11-04T11:36:03;1.00;;;1.00;;
33152;SDS011;19509;43.862;26.176;2022-11-04T11:38:37;1.00;;;1.00;;
33152;SDS011;19509;43.862;26.176;2022-11-04T11:41:15;1.10;;;1.10;;
33152;SDS011;19509;43.862;26.176;2022-11-04T11:43:48;1.20;;;1.10;;
33152;SDS011;19509;43.862;26.176;2022-11-04T11:46:22;1.10;;;1.10;;
33152;SDS011;19509;43.862;26.176;2022-11-04T11:48:57;1.00;;;1.00;;
33152;SDS011;19509;43.862;26.176;2022-11-04T11:51:26;1.00;;;1.00;;
33152;SDS011;19509;43.862;26.176;2022-11-04T11:56:38;1.30;;;1.20;;
33152;SDS011;19509;43.862;26.176;2022-11-04T11:59:20;0.93;;;0.93;;
33152;SDS011;19509;43.862;26.176;2022-11-04T12:01:52;1.23;;;1.00;;
33152;SDS011;19509;43.862;26.176;2022-11-04T12:04:36;1.00;;;1.00;;
33152;SDS011;19509;43.862;26.176;2022-11-04T12:07:11;1.00;;;1.00;;
33152;SDS011;19509;43.862;26.176;2022-11-04T12:09:50;1.20;;;1.00;;
33152;SDS011;19509;43.862;26.176;2022-11-04T12:12:36;1.00;;;1.00;;
33152;SDS011;19509;43.862;26.176;2022-11-04T12:21:02;1.00;;;1.00;;
33152;SDS011;19509;43.862;26.176;2022-11-04T12:23:34;1.20;;;1.20;;
33152;SDS011;19509;43.862;26.176;2022-11-04T12:26:16;1.20;;;1.20;;
33152;SDS011;19509;43.862;26.176;2022-11-04T12:34:42;0.90;;;0.90;;
33152;SDS011;19509;43.862;26.176;2022-11-04T12:42:42;2.53;;;1.20;;
33152;SDS011;19509;43.862;26.176;2022-11-04T12:48:28;1.07;;;1.00;;
33152;SDS011;19509;43.862;26.176;2022-11-04T12:53:49;1.10;;;1.10;;
33152;SDS011;19509;43.862;26.176;2022-11-04T12:56:38;1.30;;;1.20;;
33152;SDS011;19509;43.862;26.176;2022-11-04T13:01:49;0.90;;;0.90;;
33152;SDS011;19509;43.862;26.176;2022-11-04T13:06:57;1.17;;;1.13;;
33152;SDS011;19509;43.862;26.176;2022-11-04T13:09:48;1.00;;;1.00;;
33152;SDS011;19509;43.862;26.176;2022-11-04T13:12:24;1.10;;;1.10;;
33152;SDS011;19509;43.862;26.176;2022-11-04T13:14:58;1.03;;;1.00;;
33152;SDS011;19509;43.862;26.176;2022-11-04T13:17:33;1.23;;;1.23;;
33152;SDS011;19509;43.862;26.176;2022-11-04T13:20:12;1.20;;;1.20;;
33152;SDS011;19509;43.862;26.176;2022-11-04T13:22:50;1.20;;;1.10;;
33152;SDS011;19509;43.862;26.176;2022-11-04T13:27:51;1.00;;;1.00;;
33152;SDS011;19509;43.862;26.176;2022-11-04T13:30:22;1.17;;;1.17;;
33152;SDS011;19509;43.862;26.176;2022-11-04T13:33:07;1.03;;;1.03;;
33152;SDS011;19509;43.862;26.176;2022-11-04T13:38:30;1.40;;;1.10;;
33152;SDS011;19509;43.862;26.176;2022-11-04T13:41:25;1.10;;;1.10;;
33152;SDS011;19509;43.862;26.176;2022-11-04T13:43:55;0.90;;;0.90;;
33152;SDS011;19509;43.862;26.176;2022-11-04T13:46:23;1.10;;;1.00;;
33152;SDS011;19509;43.862;26.176;2022-11-04T13:48:57;1.20;;;1.20;;
33152;SDS011;19509;43.862;26.176;2022-11-04T13:51:32;1.10;;;1.10;;
33152;SDS011;19509;43.862;26.176;2022-11-04T13:54:06;1.40;;;1.40;;
33152;SDS011;19509;43.862;26.176;2022-11-04T13:56:48;1.53;;;1.10;;
33152;SDS011;19509;43.862;26.176;2022-11-04T13:59:18;1.43;;;1.43;;
33152;SDS011;19509;43.862;26.176;2022-11-04T14:04:36;1.23;;;1.23;;
33152;SDS011;19509;43.862;26.176;2022-11-04T14:07:06;1.03;;;1.03;;
33152;SDS011;19509;43.862;26.176;2022-11-04T14:22:35;1.40;;;1.17;;
33152;SDS011;19509;43.862;26.176;2022-11-04T14:28:25;1.30;;;1.30;;
33152;SDS011;19509;43.862;26.176;2022-11-04T14:31:03;1.20;;;1.20;;
33152;SDS011;19509;43.862;26.176;2022-11-04T14:33:35;1.40;;;1.40;;
33152;SDS011;19509;43.862;26.176;2022-11-04T14:38:43;1.50;;;1.40;;
33152;SDS011;19509;43.862;26.176;2022-11-04T14:43:53;1.60;;;1.60;;
33152;SDS011;19509;43.862;26.176;2022-11-04T14:46:24;1.63;;;1.40;;
33152;SDS011;19509;43.862;26.176;2022-11-04T14:48:55;1.33;;;1.10;;
33152;SDS011;19509;43.862;26.176;2022-11-04T14:51:25;1.10;;;1.10;;
33152;SDS011;19509;43.862;26.176;2022-11-04T14:56:50;1.40;;;1.10;;
33152;SDS011;19509;43.862;26.176;2022-11-04T14:59:20;1.00;;;1.00;;
33152;SDS011;19509;43.862;26.176;2022-11-04T15:01:47;1.13;;;1.00;;
33152;SDS011;19509;43.862;26.176;2022-11-04T15:04:25;1.53;;;1.27;;
33152;SDS011;19509;43.862;26.176;2022-11-04T15:06:57;1.10;;;1.10;;
33152;SDS011;19509;43.862;26.176;2022-11-04T15:09:28;1.20;;;1.20;;
33152;SDS011;19509;43.862;26.176;2022-11-04T15:12:08;1.03;;;1.03;;
33152;SDS011;19509;43.862;26.176;2022-11-04T15:14:54;1.43;;;1.20;;
33152;SDS011;19509;43.862;26.176;2022-11-04T15:17:22;1.33;;;1.23;;
33152;SDS011;19509;43.862;26.176;2022-11-04T15:19:51;1.10;;;1.10;;
33152;SDS011;19509;43.862;26.176;2022-11-04T15:22:18;1.37;;;1.37;;
33152;SDS011;19509;43.862;26.176;2022-11-04T15:24:44;1.30;;;1.30;;
33152;SDS011;19509;43.862;26.176;2022-11-04T15:27:11;1.40;;;1.40;;
33152;SDS011;19509;43.862;26.176;2022-11-04T15:29:39;1.90;;;1.50;;
33152;SDS011;19509;43.862;26.176;2022-11-04T15:32:05;1.40;;;1.37;;
33152;SDS011;19509;43.862;26.176;2022-11-04T15:34:31;1.77;;;1.67;;
33152;SDS011;19509;43.862;26.176;2022-11-04T15:36:58;1.37;;;1.37;;
33152;SDS011;19509;43.862;26.176;2022-11-04T15:39:30;1.50;;;1.40;;
33152;SDS011;19509;43.862;26.176;2022-11-04T15:42:02;1.90;;;1.43;;
33152;SDS011;19509;43.862;26.176;2022-11-04T15:44:56;1.53;;;1.53;;
33152;SDS011;19509;43.862;26.176;2022-11-04T15:47:25;8.43;;;1.60;;
33152;SDS011;19509;43.862;26.176;2022-11-04T15:49:52;2.10;;;1.43;;
33152;SDS011;19509;43.862;26.176;2022-11-04T15:52:25;1.33;;;1.23;;
33152;SDS011;19509;43.862;26.176;2022-11-04T15:54:53;1.30;;;1.30;;
33152;SDS011;19509;43.862;26.176;2022-11-04T15:57:26;2.10;;;2.00;;
33152;SDS011;19509;43.862;26.176;2022-11-04T15:59:57;2.57;;;2.47;;
33152;SDS011;19509;43.862;26.176;2022-11-04T16:02:29;2.00;;;2.00;;
33152;SDS011;19509;43.862;26.176;2022-11-04T16:05:05;1.80;;;1.70;;
33152;SDS011;19509;43.862;26.176;2022-11-04T16:07:45;1.90;;;1.80;;
33152;SDS011;19509;43.862;26.176;2022-11-04T16:10:31;1.80;;;1.70;;
33152;SDS011;19509;43.862;26.176;2022-11-04T16:13:00;1.70;;;1.70;;
33152;SDS011;19509;43.862;26.176;2022-11-04T16:15:35;1.97;;;1.90;;
33152;SDS011;19509;43.862;26.176;2022-11-04T16:18:01;1.70;;;1.70;;
33152;SDS011;19509;43.862;26.176;2022-11-04T16:20:28;1.70;;;1.70;;
33152;SDS011;19509;43.862;26.176;2022-11-04T16:22:56;1.50;;;1.50;;
33152;SDS011;19509;43.862;26.176;2022-11-04T16:25:28;2.00;;;1.90;;
33152;SDS011;19509;43.862;26.176;2022-11-04T16:27:57;3.23;;;3.13;;
33152;SDS011;19509;43.862;26.176;2022-11-04T16:30:23;3.23;;;3.13;;
33152;SDS011;19509;43.862;26.176;2022-11-04T16:32:50;3.93;;;3.63;;
33152;SDS011;19509;43.862;26.176;2022-11-04T16:35:25;4.10;;;4.00;;
33152;SDS011;19509;43.862;26.176;2022-11-04T16:37:52;2.43;;;2.33;;
33152;SDS011;19509;43.862;26.176;2022-11-04T16:40:20;2.30;;;2.10;;
33152;SDS011;19509;43.862;26.176;2022-11-04T16:42:47;2.40;;;2.20;;
33152;SDS011;19509;43.862;26.176;2022-11-04T16:47:56;2.00;;;1.90;;
33152;SDS011;19509;43.862;26.176;2022-11-04T16:50:22;1.83;;;1.80;;
33152;SDS011;19509;43.862;26.176;2022-11-04T16:52:49;2.13;;;1.97;;
33152;SDS011;19509;43.862;26.176;2022-11-04T16:55:15;1.60;;;1.60;;
33152;SDS011;19509;43.862;26.176;2022-11-04T16:57:42;1.60;;;1.60;;
33152;SDS011;19509;43.862;26.176;2022-11-04T17:00:16;1.90;;;1.83;;
33152;SDS011;19509;43.862;26.176;2022-11-04T17:02:44;1.70;;;1.60;;
33152;SDS011;19509;43.862;26.176;2022-11-04T17:05:10;1.70;;;1.70;;
33152;SDS011;19509;43.862;26.176;2022-11-04T17:07:36;1.77;;;1.67;;
33152;SDS011;19509;43.862;26.176;2022-11-04T17:10:25;1.80;;;1.70;;
33152;SDS011;19509;43.862;26.176;2022-11-04T17:12:50;1.40;;;1.40;;
33152;SDS011;19509;43.862;26.176;2022-11-04T17:15:16;2.37;;;1.67;;